createdAt,value
2023-01-13T00:00:11.188Z,0.55
2023-01-13T00:02:54.886Z,0.40
2023-01-13T00:05:39.934Z,0.33
2023-01-13T00:08:14.009Z,0.27
2023-01-13T00:10:57.791Z,0.23
2023-01-13T00:16:58.625Z,0.08
2023-01-13T00:19:34.905Z,0.07
2023-01-13T00:22:12.163Z,0.04
2023-01-13T00:24:53.712Z,0.00
2023-01-13T00:27:31.239Z,0.05
2023-01-13T00:30:09.711Z,0.01
2023-01-13T00:32:44.200Z,-0.02
2023-01-13T00:35:26.281Z,0.01
2023-01-13T00:38:09.093Z,-0.06
2023-01-13T00:40:47.600Z,-0.06
2023-01-13T00:43:28.133Z,-0.10
2023-01-13T00:48:43.601Z,-0.04
2023-01-13T00:51:29.547Z,0.00
2023-01-13T00:57:33.798Z,0.02
2023-01-13T01:00:15.884Z,-0.01
2023-01-13T01:02:48.428Z,0.06
2023-01-13T01:05:25.552Z,0.14
2023-01-13T01:08:05.967Z,0.08
2023-01-13T01:10:41.165Z,0.12
2023-01-13T01:13:24.192Z,0.18
2023-01-13T01:16:04.526Z,0.19
2023-01-13T01:22:05.656Z,0.30
2023-01-13T01:24:47.211Z,0.29
2023-01-13T01:27:16.952Z,0.33
2023-01-13T01:33:32.991Z,0.46
2023-01-13T01:36:11.495Z,0.51
2023-01-13T01:38:45.693Z,0.49
2023-01-13T01:41:29.480Z,0.48
2023-01-13T01:44:50.585Z,0.54
2023-01-13T01:47:25.674Z,0.53
2023-01-13T01:53:33.891Z,0.59
2023-01-13T01:56:13.912Z,0.56
2023-01-13T01:58:53.994Z,0.56
2023-01-13T02:05:07.551Z,0.69
2023-01-13T02:07:47.621Z,0.76
2023-01-13T02:10:27.894Z,0.64
2023-01-13T02:13:03.939Z,0.66
2023-01-13T02:15:55.793Z,0.66
2023-01-13T02:19:38.795Z,0.66
2023-01-13T02:22:25.512Z,0.76
2023-01-13T02:25:25.495Z,0.77
2023-01-13T02:31:43.748Z,0.83
2023-01-13T02:34:51.048Z,0.90
2023-01-13T02:37:33.130Z,0.92
2023-01-13T02:40:25.880Z,1.04
2023-01-13T02:43:50.061Z,1.04
2023-01-13T02:46:56.164Z,1.08
2023-01-13T02:53:11.988Z,1.17
2023-01-13T02:56:00.929Z,1.15
2023-01-13T03:02:13.227Z,1.13
2023-01-13T03:05:02.822Z,1.14
2023-01-13T03:08:22.093Z,1.19
2023-01-13T03:14:44.555Z,1.24
2023-01-13T03:17:35.407Z,1.17
2023-01-13T03:20:28.405Z,1.16
2023-01-13T03:23:17.633Z,1.18
2023-01-13T03:26:03.562Z,1.25
2023-01-13T03:28:50.166Z,1.21
2023-01-13T03:38:58.164Z,1.16
2023-01-13T03:41:39.634Z,1.31
2023-01-13T03:44:33.958Z,1.26
2023-01-13T03:47:26.451Z,1.22
2023-01-13T03:50:07.891Z,1.15
2023-01-13T03:56:15.994Z,1.24
2023-01-13T03:58:58.558Z,1.23
2023-01-13T04:05:12.520Z,1.22
2023-01-13T04:08:12.771Z,1.25
2023-01-13T04:11:15.052Z,1.24
2023-01-13T04:17:06.273Z,1.27
2023-01-13T04:23:05.425Z,1.39
2023-01-13T04:28:56.843Z,1.54
2023-01-13T04:31:32.924Z,1.49
2023-01-13T04:34:05.827Z,1.47
2023-01-13T04:36:49.710Z,1.42
2023-01-13T04:39:21.381Z,1.35
2023-01-13T04:42:04.981Z,1.31
2023-01-13T04:44:42.129Z,1.40
2023-01-13T04:47:21.465Z,1.27
2023-01-13T04:49:57.126Z,1.24
2023-01-13T04:56:04.476Z,1.08
2023-01-13T05:02:05.811Z,1.06
2023-01-13T05:04:43.719Z,1.14
2023-01-13T05:07:25.641Z,1.09
2023-01-13T05:09:57.101Z,1.16
2023-01-13T05:12:48.011Z,1.13
2023-01-13T05:15:44.886Z,1.03
2023-01-13T05:18:25.192Z,1.01
2023-01-13T05:21:09.914Z,1.08
2023-01-13T05:24:03.020Z,0.97
2023-01-13T05:26:41.493Z,0.91
2023-01-13T05:29:15.786Z,0.92
2023-01-13T05:32:04.083Z,0.91
2023-01-13T05:34:41.610Z,0.87
2023-01-13T05:37:20.578Z,0.82
2023-01-13T05:40:09.677Z,0.82
2023-01-13T05:43:03.902Z,0.78
2023-01-13T05:45:49.012Z,0.72
2023-01-13T05:48:51.884Z,0.68
2023-01-13T05:51:28.675Z,0.70
2023-01-13T05:54:03.617Z,0.73
2023-01-13T05:56:46.928Z,0.71
2023-01-13T05:59:30.318Z,0.67
2023-01-13T06:02:02.822Z,0.72
2023-01-13T06:04:42.316Z,0.64
2023-01-13T06:07:19.165Z,0.62
2023-01-13T06:10:13.269Z,0.58
2023-01-13T06:12:51.732Z,0.60
2023-01-13T06:15:30.198Z,0.56
2023-01-13T06:21:41.370Z,0.56
2023-01-13T06:30:32.552Z,0.78
2023-01-13T06:36:41.731Z,0.88
2023-01-13T06:43:17.133Z,0.89
2023-01-13T06:45:59.540Z,0.93
2023-01-13T06:48:38.010Z,1.14
2023-01-13T06:51:18.113Z,1.21
2023-01-13T06:53:52.892Z,1.42
2023-01-13T06:56:37.866Z,1.58
2023-01-13T06:59:12.568Z,1.51
2023-01-13T07:01:55.339Z,1.61
2023-01-13T07:07:44.658Z,1.57
2023-01-13T07:10:28.935Z,1.61
2023-01-13T07:13:26.038Z,1.72
2023-01-13T07:16:02.614Z,1.86
2023-01-13T07:18:44.555Z,1.78
2023-01-13T07:21:21.150Z,1.84
2023-01-13T07:23:50.578Z,2.00
2023-01-13T07:26:24.567Z,2.05
2023-01-13T07:28:55.564Z,2.03
2023-01-13T07:31:34.532Z,2.09
2023-01-13T07:34:11.735Z,2.22
2023-01-13T07:36:53.142Z,2.23
2023-01-13T07:39:25.451Z,2.32
2023-01-13T07:42:15.580Z,2.35
2023-01-13T07:44:48.243Z,2.46
2023-01-13T07:47:24.993Z,2.55
2023-01-13T07:50:05.065Z,2.63
2023-01-13T07:52:43.371Z,2.69
2023-01-13T07:55:18.155Z,2.69
2023-01-13T07:57:51.634Z,2.81
2023-01-13T08:00:28.581Z,2.84
2023-01-13T08:03:01.897Z,2.97
2023-01-13T08:05:37.342Z,3.09
2023-01-13T08:08:09.410Z,3.02
2023-01-13T08:10:40.596Z,3.12
2023-01-13T08:13:23.920Z,3.10
2023-01-13T08:16:10.751Z,3.10
2023-01-13T08:18:42.752Z,3.08
2023-01-13T08:21:19.246Z,3.04
2023-01-13T08:29:54.024Z,2.80
2023-01-13T08:35:56.005Z,2.90
2023-01-13T08:38:38.951Z,3.04
2023-01-13T08:41:42.069Z,3.05
2023-01-13T08:44:15.909Z,3.01
2023-01-13T08:46:45.274Z,2.98
2023-01-13T08:49:27.511Z,2.96
2023-01-13T08:52:11.009Z,2.89
2023-01-13T08:54:53.462Z,2.78
2023-01-13T08:57:26.341Z,2.81
2023-01-13T09:00:04.046Z,2.75
2023-01-13T09:02:35.597Z,2.62
2023-01-13T09:08:42.078Z,2.69
2023-01-13T09:11:51.431Z,2.68
2023-01-13T09:14:30.848Z,2.69
2023-01-13T09:17:02.254Z,2.74
2023-01-13T09:19:39.185Z,2.85
2023-01-13T09:22:25.079Z,3.07
2023-01-13T09:25:02.886Z,3.31
2023-01-13T09:27:35.745Z,3.43
2023-01-13T09:30:12.139Z,3.56
2023-01-13T09:32:44.545Z,3.57
2023-01-13T09:35:23.706Z,3.79
2023-01-13T09:37:58.120Z,3.93
2023-01-13T09:40:45.108Z,3.93
2023-01-13T09:43:57.904Z,3.88
2023-01-13T09:46:49.856Z,3.96
2023-01-13T09:49:28.751Z,3.89
2023-01-13T09:52:26.791Z,4.02
2023-01-13T09:55:21.368Z,4.05
2023-01-13T09:57:57.008Z,4.09
2023-01-13T10:00:41.327Z,4.09
2023-01-13T10:03:32.384Z,4.13
2023-01-13T10:06:30.820Z,4.04
2023-01-13T10:09:10.713Z,4.06
2023-01-13T10:12:03.883Z,4.11
2023-01-13T10:14:57.734Z,4.15
2023-01-13T10:17:45.821Z,4.18
2023-01-13T10:20:27.856Z,4.16
2023-01-13T10:23:20.813Z,4.28
2023-01-13T10:26:34.639Z,4.39
2023-01-13T10:29:12.291Z,4.28
2023-01-13T10:31:44.671Z,4.13
2023-01-13T10:34:18.663Z,4.04
2023-01-13T10:37:13.894Z,3.96
2023-01-13T10:40:00.458Z,3.95
2023-01-13T10:42:31.552Z,3.95
2023-01-13T10:45:04.616Z,3.91
2023-01-13T10:47:39.205Z,3.97
2023-01-13T10:50:29.520Z,3.83
2023-01-13T10:53:26.911Z,3.83
2023-01-13T10:56:08.683Z,3.88
2023-01-13T10:58:43.162Z,3.79
2023-01-13T11:01:30.604Z,3.79
2023-01-13T11:04:29.857Z,3.68
2023-01-13T11:07:02.624Z,3.54
2023-01-13T11:09:36.409Z,3.60
2023-01-13T11:12:34.173Z,3.59
2023-01-13T11:15:16.798Z,3.60
2023-01-13T11:18:18.338Z,3.80
2023-01-13T11:21:06.446Z,3.95
2023-01-13T11:23:51.033Z,3.91
2023-01-13T11:26:35.265Z,3.92
2023-01-13T11:29:59.188Z,3.89
2023-01-13T11:32:44.470Z,3.80
2023-01-13T11:35:19.265Z,3.74
2023-01-13T11:37:58.953Z,3.74
2023-01-13T11:40:43.612Z,3.81
2023-01-13T11:43:38.750Z,3.78
2023-01-13T11:46:17.713Z,3.94
2023-01-13T11:48:55.310Z,3.87
2023-01-13T11:55:37.620Z,4.16
2023-01-13T11:58:51.549Z,4.16
2023-01-13T12:02:07.007Z,4.22
2023-01-13T12:05:38.130Z,4.12
2023-01-13T12:15:23.803Z,3.97
2023-01-13T12:18:21.886Z,3.98
2023-01-13T12:21:18.938Z,4.04
2023-01-13T12:27:41.929Z,4.05
2023-01-13T12:30:53.298Z,4.09
2023-01-13T12:33:39.013Z,4.02
2023-01-13T12:37:06.008Z,3.92
2023-01-13T12:39:55.719Z,4.02
2023-01-13T12:43:23.849Z,4.04
2023-01-13T12:45:52.961Z,4.19
2023-01-13T12:49:01.230Z,4.24
2023-01-13T12:52:00.359Z,4.15
2023-01-13T12:54:55.474Z,4.17
2023-01-13T12:57:34.955Z,4.24
2023-01-13T13:00:21.127Z,4.32
2023-01-13T13:03:22.316Z,4.29
2023-01-13T13:06:23.534Z,4.30
2023-01-13T13:09:34.153Z,4.28
2023-01-13T13:12:52.162Z,4.37
2023-01-13T13:15:28.077Z,4.28
2023-01-13T13:18:27.982Z,4.37
2023-01-13T13:21:10.652Z,4.38
2023-01-13T13:23:48.483Z,4.43
2023-01-13T13:26:40.095Z,4.38
2023-01-13T13:29:57.084Z,4.36
2023-01-13T13:32:52.713Z,4.41
2023-01-13T13:39:39.703Z,4.37
2023-01-13T13:42:46.949Z,4.41
2023-01-13T13:45:51.378Z,4.34
2023-01-13T13:52:03.631Z,4.38
2023-01-13T13:54:52.748Z,4.42
2023-01-13T13:57:35.183Z,4.43
2023-01-13T14:00:44.133Z,4.41
2023-01-13T14:03:40.328Z,4.51
2023-01-13T14:06:27.765Z,4.46
2023-01-13T14:09:06.768Z,4.48
2023-01-13T14:11:42.212Z,4.42
2023-01-13T14:14:23.931Z,4.32
2023-01-13T14:20:34.125Z,4.41
2023-01-13T14:23:28.712Z,4.38
2023-01-13T14:26:17.492Z,4.31
2023-01-13T14:29:01.444Z,4.39
2023-01-13T14:31:40.661Z,4.40
2023-01-13T14:34:39.020Z,4.38
2023-01-13T14:37:37.750Z,4.38
2023-01-13T14:40:44.828Z,4.41
2023-01-13T14:43:27.976Z,4.55
2023-01-13T14:46:07.246Z,4.59
2023-01-13T14:48:41.483Z,4.63
2023-01-13T14:51:24.589Z,4.62
2023-01-13T14:53:57.314Z,4.56
2023-01-13T14:57:01.104Z,4.54
2023-01-13T15:00:11.460Z,4.43
2023-01-13T15:03:04.619Z,4.51
2023-01-13T15:05:39.752Z,4.52
2023-01-13T15:08:22.497Z,4.44
2023-01-13T15:11:30.482Z,4.38
2023-01-13T15:14:14.940Z,4.35
2023-01-13T15:16:49.720Z,4.37
2023-01-13T15:19:27.358Z,4.49
2023-01-13T15:22:13.740Z,4.44
2023-01-13T15:27:43.901Z,4.34
2023-01-13T15:30:35.879Z,4.38
2023-01-13T15:33:18.524Z,4.33
2023-01-13T15:36:02.039Z,4.28
2023-01-13T15:38:42.171Z,4.29
2023-01-13T15:41:14.001Z,4.23
2023-01-13T15:44:16.423Z,4.13
2023-01-13T15:46:46.927Z,4.11
2023-01-13T15:49:41.265Z,4.16
2023-01-13T15:52:30.993Z,4.08
2023-01-13T15:55:12.292Z,4.10
2023-01-13T15:57:56.788Z,4.09
2023-01-13T16:00:36.447Z,3.99
2023-01-13T16:03:19.211Z,3.99
2023-01-13T16:05:53.566Z,4.05
2023-01-13T16:08:35.389Z,4.00
2023-01-13T16:11:07.585Z,3.98
2023-01-13T16:13:49.116Z,4.06
2023-01-13T16:16:34.438Z,4.10
2023-01-13T16:22:42.254Z,4.06
2023-01-13T16:28:51.090Z,4.02
2023-01-13T16:31:34.371Z,4.18
2023-01-13T16:34:11.826Z,4.11
2023-01-13T16:36:52.950Z,4.17
2023-01-13T16:39:27.670Z,4.11
2023-01-13T16:42:20.600Z,4.12
2023-01-13T16:44:55.571Z,4.10
2023-01-13T16:47:33.908Z,4.09
2023-01-13T16:50:12.106Z,4.14
2023-01-13T16:52:52.200Z,4.10
2023-01-13T16:55:31.494Z,4.08
2023-01-13T16:58:14.085Z,4.06
2023-01-13T17:00:55.513Z,4.00
2023-01-13T17:03:41.163Z,4.06
2023-01-13T17:06:20.263Z,4.05
2023-01-13T17:09:05.207Z,4.02
2023-01-13T17:11:45.916Z,4.02
2023-01-13T17:14:26.740Z,3.93
2023-01-13T17:17:00.174Z,3.91
2023-01-13T17:19:46.243Z,3.92
2023-01-13T17:22:20.326Z,3.97
2023-01-13T17:24:58.364Z,3.92
2023-01-13T17:27:35.801Z,3.87
2023-01-13T17:30:16.789Z,3.78
2023-01-13T17:32:52.579Z,3.83
2023-01-13T17:35:25.312Z,3.88
2023-01-13T17:37:56.417Z,3.90
2023-01-13T17:40:33.254Z,3.85
2023-01-13T17:43:03.743Z,3.83
2023-01-13T17:45:51.453Z,3.84
2023-01-13T17:48:30.315Z,3.79
2023-01-13T17:51:12.773Z,3.83
2023-01-13T17:53:55.108Z,3.81
2023-01-13T17:56:39.721Z,3.77
2023-01-13T17:59:17.153Z,3.78
2023-01-13T18:01:48.868Z,3.83
2023-01-13T18:04:38.360Z,4.01
2023-01-13T18:07:10.854Z,3.94
2023-01-13T18:09:46.336Z,3.94
2023-01-13T18:12:28.688Z,3.94
2023-01-13T18:15:11.633Z,4.03
2023-01-13T18:17:51.689Z,3.97
2023-01-13T18:20:48.325Z,4.08
2023-01-13T18:23:45.347Z,4.07
2023-01-13T18:26:40.890Z,4.11
2023-01-13T18:29:26.260Z,4.13
2023-01-13T18:32:00.984Z,4.05
2023-01-13T18:34:37.512Z,3.97
2023-01-13T18:37:18.770Z,4.05
2023-01-13T18:39:58.191Z,4.09
2023-01-13T18:42:52.350Z,4.00
2023-01-13T18:45:33.101Z,3.98
2023-01-13T18:48:07.068Z,4.08
2023-01-13T18:50:44.971Z,4.05
2023-01-13T18:53:22.219Z,4.06
2023-01-13T18:55:57.115Z,4.11
2023-01-13T18:58:34.238Z,4.16
2023-01-13T19:01:13.840Z,4.23
2023-01-13T19:04:05.952Z,4.32
2023-01-13T19:06:40.094Z,4.28
2023-01-13T19:09:33.107Z,4.25
2023-01-13T19:12:17.739Z,4.25
2023-01-13T19:14:54.030Z,4.33
2023-01-13T19:17:31.703Z,4.37
2023-01-13T19:20:11.615Z,4.38
2023-01-13T19:22:53.786Z,4.39
2023-01-13T19:25:37.098Z,4.40
2023-01-13T19:28:17.850Z,4.50
2023-01-13T19:30:59.545Z,4.43
2023-01-13T19:33:40.316Z,4.43
2023-01-13T19:36:15.850Z,4.43
2023-01-13T19:38:53.906Z,4.38
2023-01-13T19:41:46.702Z,4.38
2023-01-13T19:44:41.074Z,4.41
2023-01-13T19:47:17.034Z,4.44
2023-01-13T19:50:00.334Z,4.35
2023-01-13T19:52:37.196Z,4.36
2023-01-13T19:55:17.075Z,4.36
2023-01-13T19:57:58.283Z,4.46
2023-01-13T20:00:29.781Z,4.41
2023-01-13T20:03:15.817Z,4.49
2023-01-13T20:05:51.318Z,4.46
2023-01-13T20:08:30.174Z,4.44
2023-01-13T20:11:23.738Z,4.42
2023-01-13T20:14:04.444Z,4.46
2023-01-13T20:16:44.620Z,4.50
2023-01-13T20:19:20.259Z,4.49
2023-01-13T20:21:58.417Z,4.48
2023-01-13T20:24:39.923Z,4.51
2023-01-13T20:27:18.990Z,4.53
2023-01-13T20:29:52.901Z,4.51
2023-01-13T20:32:28.685Z,4.58
2023-01-13T20:35:03.483Z,4.49
2023-01-13T20:37:46.900Z,4.53
2023-01-13T20:40:20.623Z,4.59
2023-01-13T20:42:55.806Z,4.53
2023-01-13T20:45:31.679Z,4.53
2023-01-13T20:48:02.393Z,4.51
2023-01-13T20:50:45.153Z,4.45
2023-01-13T20:53:18.201Z,4.46
2023-01-13T20:55:50.793Z,4.43
2023-01-13T20:58:29.702Z,4.42
2023-01-13T21:01:01.582Z,4.46
2023-01-13T21:03:45.400Z,4.60
2023-01-13T21:06:29.181Z,4.52
2023-01-13T21:08:59.757Z,4.44
2023-01-13T21:11:58.305Z,4.51
2023-01-13T21:14:51.401Z,4.44
2023-01-13T21:17:48.753Z,4.45
2023-01-13T21:20:19.471Z,4.46
2023-01-13T21:22:59.553Z,4.45
2023-01-13T21:25:30.619Z,4.48
2023-01-13T21:28:14.041Z,4.56
2023-01-13T21:30:51.040Z,4.56
2023-01-13T21:33:27.864Z,4.57
2023-01-13T21:36:09.663Z,4.58
2023-01-13T21:38:57.134Z,4.60
2023-01-13T21:41:51.713Z,4.61
2023-01-13T21:44:48.079Z,4.60
2023-01-13T21:47:40.087Z,4.60
2023-01-13T21:50:24.108Z,4.55
2023-01-13T21:52:59.083Z,4.61
2023-01-13T21:55:36.787Z,4.58
2023-01-13T21:58:20.433Z,4.56
2023-01-13T22:00:55.873Z,4.42
2023-01-13T22:04:09.964Z,4.47
2023-01-13T22:06:48.214Z,4.42
2023-01-13T22:09:20.857Z,4.33
2023-01-13T22:11:58.862Z,4.26
2023-01-13T22:14:41.064Z,4.19
2023-01-13T22:17:20.082Z,4.29
2023-01-13T22:20:01.872Z,4.36
2023-01-13T22:22:37.763Z,4.37
2023-01-13T22:25:17.232Z,4.47
2023-01-13T22:28:00.485Z,4.49
2023-01-13T22:30:40.952Z,4.56
2023-01-13T22:33:18.326Z,4.56
2023-01-13T22:35:58.374Z,4.58
2023-01-13T22:38:38.117Z,4.50
2023-01-13T22:41:18.885Z,4.47
2023-01-13T22:43:50.256Z,4.43
2023-01-13T22:46:40.031Z,4.41
2023-01-13T22:49:13.851Z,4.40
2023-01-13T22:51:59.000Z,4.40
2023-01-13T22:54:34.955Z,4.37
2023-01-13T22:57:16.070Z,4.34
2023-01-13T22:59:50.887Z,4.36
2023-01-13T23:02:27.917Z,4.39
2023-01-13T23:05:13.789Z,4.42
2023-01-13T23:07:53.273Z,4.49
2023-01-13T23:10:26.668Z,4.56
2023-01-13T23:13:04.773Z,4.45
2023-01-13T23:15:39.434Z,4.36
2023-01-13T23:18:17.343Z,4.40
2023-01-13T23:20:51.696Z,4.45
2023-01-13T23:23:25.005Z,4.42
2023-01-13T23:25:58.465Z,4.41
2023-01-13T23:28:40.724Z,4.40
2023-01-13T23:31:25.420Z,4.38
2023-01-13T23:34:02.685Z,4.47
2023-01-13T23:36:42.472Z,4.52
2023-01-13T23:39:27.137Z,4.46
2023-01-13T23:42:01.460Z,4.47
2023-01-13T23:44:39.211Z,4.44
2023-01-13T23:47:14.359Z,4.45
2023-01-13T23:49:51.984Z,4.49
2023-01-13T23:52:30.686Z,4.44
2023-01-13T23:55:09.174Z,4.42
2023-01-13T23:57:40.866Z,4.35
